地図

経路データ

SID SEASON NUMBER BASIN SUBBASIN NAME ISO_TIME NATURE LAT LON WMO_WIND WMO_PRES WMO_AGENCY TRACK_TYPE DIST2LAND LANDFALL IFLAG USA_AGENCY USA_ATCF_ID USA_LAT USA_LON USA_RECORD USA_STATUS USA_WIND USA_PRES USA_SSHS USA_R34_NE USA_R34_SE USA_R34_SW USA_R34_NW USA_R50_NE USA_R50_SE USA_R50_SW USA_R50_NW USA_R64_NE USA_R64_SE USA_R64_SW USA_R64_NW USA_POCI USA_ROCI USA_RMW USA_EYE TOKYO_LAT TOKYO_LON TOKYO_GRADE TOKYO_WIND TOKYO_PRES TOKYO_R50_DIR TOKYO_R50_LONG TOKYO_R50_SHORT TOKYO_R30_DIR TOKYO_R30_LONG TOKYO_R30_SHORT TOKYO_LAND CMA_LAT CMA_LON CMA_CAT CMA_WIND CMA_PRES HKO_LAT HKO_LON HKO_CAT HKO_WIND HKO_PRES NEWDELHI_LAT NEWDELHI_LON NEWDELHI_GRADE NEWDELHI_WIND NEWDELHI_PRES NEWDELHI_CI NEWDELHI_DP NEWDELHI_POCI REUNION_LAT REUNION_LON REUNION_TYPE REUNION_WIND REUNION_PRES REUNION_TNUM REUNION_CI REUNION_RMW REUNION_R34_NE REUNION_R34_SE REUNION_R34_SW REUNION_R34_NW REUNION_R50_NE REUNION_R50_SE REUNION_R50_SW REUNION_R50_NW REUNION_R64_NE REUNION_R64_SE REUNION_R64_SW REUNION_R64_NW BOM_LAT BOM_LON BOM_TYPE BOM_WIND BOM_PRES BOM_TNUM BOM_CI BOM_RMW BOM_R34_NE BOM_R34_SE BOM_R34_SW BOM_R34_NW BOM_R50_NE BOM_R50_SE BOM_R50_SW BOM_R50_NW BOM_R64_NE BOM_R64_SE BOM_R64_SW BOM_R64_NW BOM_ROCI BOM_POCI BOM_EYE BOM_POS_METHOD BOM_PRES_METHOD NADI_LAT NADI_LON NADI_CAT NADI_WIND NADI_PRES WELLINGTON_LAT WELLINGTON_LON WELLINGTON_WIND WELLINGTON_PRES DS824_LAT DS824_LON DS824_STAGE DS824_WIND DS824_PRES TD9636_LAT TD9636_LON TD9636_STAGE TD9636_WIND TD9636_PRES TD9635_LAT TD9635_LON TD9635_WIND TD9635_PRES TD9635_ROCI NEUMANN_LAT NEUMANN_LON NEUMANN_CLASS NEUMANN_WIND NEUMANN_PRES MLC_LAT MLC_LON MLC_CLASS MLC_WIND MLC_PRES USA_GUST BOM_GUST BOM_GUST_PER REUNION_GUST REUNION_GUST_PER USA_SEAHGT USA_SEARAD_NE USA_SEARAD_SE USA_SEARAD_SW USA_SEARAD_NW STORM_SPEED STORM_DIR
1856254N09333 1856 11 NA NA NOT_NAMED 1856-09-10 06:00:00 TS 9.00000 -27.0000 main 1178 1178 _____________O -1 9.00000 -27.0000 TD 30 14 315
1856254N09333 1856 11 NA NA NOT_NAMED 1856-09-10 09:00:00 TS 9.50015 -27.4997 main 1213 1213 _____________P -1 9.50015 -27.4997 TD 30 14 315
1856254N09333 1856 11 NA NA NOT_NAMED 1856-09-10 12:00:00 TS 10.0000 -28.0000 main 1251 1251 _____________O -1 10.0000 -28.0000 TD 30 14 315
1856254N09333 1856 11 NA NA NOT_NAMED 1856-09-10 15:00:00 TS 10.4999 -28.5002 main 1283 1283 _____________P -1 10.4999 -28.5002 TD 30 14 315
1856254N09333 1856 11 NA NA NOT_NAMED 1856-09-10 18:00:00 TS 11.0000 -29.0000 main 1314 1314 _____________O -1 11.0000 -29.0000 TD 30 14 316
1856254N09333 1856 11 NA NA NOT_NAMED 1856-09-10 21:00:00 TS 11.4999 -29.5002 main 1348 1348 _____________P -1 11.4999 -29.5002 TD 35 14 316
1856254N09333 1856 11 NA NA NOT_NAMED 1856-09-11 00:00:00 TS 12.0000 -30.0000 main 1386 1386 _____________O -1 12.0000 -30.0000 TS 40 14 315
1856254N09333 1856 11 NA NA NOT_NAMED 1856-09-11 03:00:00 TS 12.4924 -30.5002 main 1426 1426 _____________P -1 12.4924 -30.5002 TS 42 14 316
1856254N09333 1856 11 NA NA NOT_NAMED 1856-09-11 06:00:00 TS 13.0000 -31.0000 main 1470 1470 _____________O -1 13.0000 -31.0000 TS 45 1002 14 317
1856254N09333 1856 11 NA NA NOT_NAMED 1856-09-11 09:00:00 TS 13.5424 -31.5002 main 1516 1515 _____________P -1 13.5424 -31.5002 TS 45 15 319
1856254N09333 1856 11 NA NA NOT_NAMED 1856-09-11 12:00:00 TS 14.1000 -32.0000 main 1563 1563 _____________O -1 14.1000 -32.0000 TS 45 15 319
1856254N09333 1856 11 NA NA NOT_NAMED 1856-09-11 15:00:00 TS 14.6498 -32.4928 main 1614 1613 _____________P -1 14.6498 -32.4928 TS 47 15 319
1856254N09333 1856 11 NA NA NOT_NAMED 1856-09-11 18:00:00 TS 15.2000 -33.0000 main 1666 1666 _____________O -1 15.2000 -33.0000 TS 50 15 317
1856254N09333 1856 11 NA NA NOT_NAMED 1856-09-11 21:00:00 TS 15.7500 -33.5502 main 1731 1731 _____________P -1 15.7500 -33.5502 TS 50 15 316
1856254N09333 1856 11 NA NA NOT_NAMED 1856-09-12 00:00:00 TS 16.3000 -34.1000 main 1787 1787 _____________O -1 16.3000 -34.1000 TS 50 15 317
1856254N09333 1856 11 NA NA NOT_NAMED 1856-09-12 03:00:00 TS 16.8498 -34.6078 main 1845 1845 _____________P -1 16.8498 -34.6078 TS 52 15 319
1856254N09333 1856 11 NA NA NOT_NAMED 1856-09-12 06:00:00 TS 17.4000 -35.1000 main 1904 1904 _____________O -1 17.4000 -35.1000 TS 55 15 319
1856254N09333 1856 11 NA NA NOT_NAMED 1856-09-12 09:00:00 TS 17.9498 -35.5929 main 1964 1964 _____________P -1 17.9498 -35.5929 TS 55 15 319
1856254N09333 1856 11 NA NA NOT_NAMED 1856-09-12 12:00:00 TS 18.5000 -36.1000 main 2004 2004 _____________O -1 18.5000 -36.1000 TS 55 15 318
1856254N09333 1856 11 NA NA NOT_NAMED 1856-09-12 15:00:00 TS 19.0500 -36.6502 main 2057 2056 _____________P -1 19.0500 -36.6502 TS 55 15 317
1856254N09333 1856 11 NA NA NOT_NAMED 1856-09-12 18:00:00 TS 19.6000 -37.2000 main 2100 2100 _____________O -1 19.6000 -37.2000 TS 55 15 318
1856254N09333 1856 11 NA NA NOT_NAMED 1856-09-12 21:00:00 TS 20.1573 -37.7078 main 2144 2144 _____________P -1 20.1573 -37.7078 TS 55 15 320
1856254N09333 1856 11 NA NA NOT_NAMED 1856-09-13 00:00:00 TS 20.7000 -38.2000 main 2192 2192 _____________O -1 20.7000 -38.2000 TS 55 14 319
1856254N09333 1856 11 NA NA NOT_NAMED 1856-09-13 03:00:00 TS 21.2073 -38.7004 main 2240 2240 _____________P -1 21.2073 -38.7004 TS 57 14 317
1856254N09333 1856 11 NA NA NOT_NAMED 1856-09-13 06:00:00 TS 21.7000 -39.2000 main 2290 2290 _____________O -1 21.7000 -39.2000 TS 60 14 318
1856254N09333 1856 11 NA NA NOT_NAMED 1856-09-13 09:00:00 TS 22.2373 -39.6999 main 2337 2337 _____________P -1 22.2373 -39.6999 TS 60 14 317
1856254N09333 1856 11 NA NA NOT_NAMED 1856-09-13 12:00:00 TS 22.7000 -40.2000 main 2369 2363 _____________O -1 22.7000 -40.2000 TS 60 12 309
1856254N09333 1856 11 NA NA NOT_NAMED 1856-09-13 15:00:00 TS 22.9949 -40.7080 main 2366 2353 _____________P -1 22.9949 -40.7080 TS 60 10 299
1856254N09333 1856 11 NA NA NOT_NAMED 1856-09-13 18:00:00 TS 23.2000 -41.2000 main 2357 2350 _____________O -1 23.2000 -41.2000 TS 60 10 295
1856254N09333 1856 11 NA NA NOT_NAMED 1856-09-13 21:00:00 TS 23.4072 -41.6503 main 2348 2342 _____________P -1 23.4072 -41.6503 TS 60 9 296
1856254N09333 1856 11 NA NA NOT_NAMED 1856-09-14 00:00:00 TS 23.6000 -42.1000 main 2346 2336 _____________O -1 23.6000 -42.1000 TS 60 10 294
1856254N09333 1856 11 NA NA NOT_NAMED 1856-09-14 03:00:00 TS 23.7925 -42.6002 main 2341 2331 _____________P -1 23.7925 -42.6002 TS 60 10 294
1856254N09333 1856 11 NA NA NOT_NAMED 1856-09-14 06:00:00 TS 24.0000 -43.1000 main 2336 2331 _____________O -1 24.0000 -43.1000 TS 60 10 296
1856254N09333 1856 11 NA NA NOT_NAMED 1856-09-14 09:00:00 TS 24.2197 -43.5504 main 2333 2333 _____________P -1 24.2197 -43.5504 TS 65 10 301
1856254N09333 1856 11 NA NA NOT_NAMED 1856-09-14 12:00:00 TS 24.5000 -44.0000 main 2333 2292 _____________O -1 24.5000 -44.0000 HU 70 11 307
1856254N09333 1856 11 NA NA NOT_NAMED 1856-09-14 15:00:00 TS 24.8699 -44.4926 main 2294 2257 _____________P -1 24.8699 -44.4926 HU 72 12 311
1856254N09333 1856 11 NA NA NOT_NAMED 1856-09-14 18:00:00 TS 25.3000 -45.0000 main 2257 2222 _____________O -1 25.3000 -45.0000 HU 75 13 314
1856254N09333 1856 11 NA NA NOT_NAMED 1856-09-14 21:00:00 TS 25.7498 -45.5002 main 2222 2192 _____________P -1 25.7498 -45.5002 HU 77 13 315
1856254N09333 1856 11 NA NA NOT_NAMED 1856-09-15 00:00:00 TS 26.2000 -46.0000 main 2192 2161 _____________O -1 26.2000 -46.0000 HU 80 12 314
1856254N09333 1856 11 NA NA NOT_NAMED 1856-09-15 03:00:00 TS 26.6073 -46.5004 main 2161 2132 _____________P -1 26.6073 -46.5004 HU 80 12 312
1856254N09333 1856 11 NA NA NOT_NAMED 1856-09-15 06:00:00 TS 27.0000 -47.0000 main 2132 2100 _____________O -1 27.0000 -47.0000 HU 80 12 310
1856254N09333 1856 11 NA NA NOT_NAMED 1856-09-15 09:00:00 TS 27.3926 -47.5375 main 2105 2079 _____________P -1 27.3926 -47.5375 HU 80 12 312
1856254N09333 1856 11 NA NA NOT_NAMED 1856-09-15 12:00:00 TS 27.8000 -48.0000 main 2079 2072 _____________O -1 27.8000 -48.0000 HU 80 11 322
1856254N09333 1856 11 NA NA NOT_NAMED 1856-09-15 15:00:00 TS 28.2422 -48.2955 main 2074 2034 _____________P -1 28.2422 -48.2955 HU 80 10 334
1856254N09333 1856 11 NA NA NOT_NAMED 1856-09-15 18:00:00 TS 28.7000 -48.5000 main 2034 1976 _____________O -1 28.7000 -48.5000 HU 80 10 339
1856254N09333 1856 11 NA NA NOT_NAMED 1856-09-15 21:00:00 TS 29.1874 -48.7075 main 1976 1928 _____________P -1 29.1874 -48.7075 HU 80 10 339
1856254N09333 1856 11 NA NA NOT_NAMED 1856-09-16 00:00:00 TS 29.6000 -48.9000 main 1928 1903 _____________O -1 29.6000 -48.9000 HU 80 7 332
1856254N09333 1856 11 NA NA NOT_NAMED 1856-09-16 03:00:00 TS 29.8375 -49.1003 main 1903 1878 _____________P -1 29.8375 -49.1003 HU 80 5 319
1856254N09333 1856 11 NA NA NOT_NAMED 1856-09-16 06:00:00 TS 30.0000 -49.3000 main 1878 1853 _____________O -1 30.0000 -49.3000 HU 80 5 314
1856254N09333 1856 11 NA NA NOT_NAMED 1856-09-16 09:00:00 TS 30.2001 -49.5374 main 1853 1828 _____________P -1 30.2001 -49.5374 HU 80 5 319
1856254N09333 1856 11 NA NA NOT_NAMED 1856-09-16 12:00:00 TS 30.4000 -49.7000 main 1828 1806 _____________O -1 30.4000 -49.7000 HU 80 4 342
1856254N09333 1856 11 NA NA NOT_NAMED 1856-09-16 15:00:00 TS 30.6000 -49.6877 main 1806 1785 _____________P -1 30.6000 -49.6877 HU 80 4 12
1856254N09333 1856 11 NA NA NOT_NAMED 1856-09-16 18:00:00 TS 30.8000 -49.6000 main 1785 1763 _____________O -1 30.8000 -49.6000 HU 80 4 15
1856254N09333 1856 11 NA NA NOT_NAMED 1856-09-16 21:00:00 TS 31.0000 -49.5574 main 1763 1743 _____________P -1 31.0000 -49.5574 HU 80 4 12
1856254N09333 1856 11 NA NA NOT_NAMED 1856-09-17 00:00:00 TS 31.2000 -49.5000 main 1743 1722 _____________O -1 31.2000 -49.5000 HU 80 4 16
1856254N09333 1856 11 NA NA NOT_NAMED 1856-09-17 03:00:00 TS 31.4000 -49.4150 main 1722 1702 _____________P -1 31.4000 -49.4150 HU 77 4 23
1856254N09333 1856 11 NA NA NOT_NAMED 1856-09-17 06:00:00 TS 31.6000 -49.3000 main 1702 1682 _____________O -1 31.6000 -49.3000 HU 75 5 26
1856254N09333 1856 11 NA NA NOT_NAMED 1856-09-17 09:00:00 TS 31.8300 -49.1651 main 1682 1662 _____________P -1 31.8300 -49.1651 HU 75 5 33
1856254N09333 1856 11 NA NA NOT_NAMED 1856-09-17 12:00:00 TS 32.0000 -49.0000 main 1663 1663 _____________O -1 32.0000 -49.0000 HU 75 4 57
1856254N09333 1856 11 NA NA NOT_NAMED 1856-09-17 15:00:00 TS 32.0300 -48.8073 main 1667 1667 _____________P -1 32.0300 -48.8073 HU 75 3 90
1856254N09333 1856 11 NA NA NOT_NAMED 1856-09-17 18:00:00 TS 32.0000 -48.6000 main 1671 1671 _____________O -1 32.0000 -48.6000 HU 75 4 95
1856254N09333 1856 11 NA NA NOT_NAMED 1856-09-17 21:00:00 TS 32.0000 -48.3925 main 1675 1675 _____________P -1 32.0000 -48.3925 HU 72 2 90
1856254N09333 1856 11 NA NA NOT_NAMED 1856-09-18 00:00:00 TS 32.0000 -48.4000 50 hurdat_atl main 1675 1664 O____________O hurdat_atl AL061856 32.0000 -48.8000 TS 50 0 32.0000 -48.2000 HU 70 1 338
1856254N09333 1856 11 NA NA NOT_NAMED 1856-09-18 03:00:00 TS 32.1325 -48.4524 main 1662 1640 P____________P AL061856 32.2650 -48.8549 TS 50 0 31.9999 -48.0500 HU 70 3 344
1856254N09333 1856 11 NA NA NOT_NAMED 1856-09-18 06:00:00 TS 32.3000 -48.5000 50 hurdat_atl main 1640 1619 O____________O hurdat_atl AL061856 32.5000 -48.9000 TS 50 0 32.0000 -47.9000 HU 70 3 351
1856254N09333 1856 11 NA NA NOT_NAMED 1856-09-18 09:00:00 TS 32.4591 -48.5260 main 1619 1608 P____________P AL061856 32.6925 -48.9352 TS 50 0 31.9925 -47.7075 HU 70 3 0
1856254N09333 1856 11 NA NA NOT_NAMED 1856-09-18 12:00:00 TS 32.6000 -48.5000 50 hurdat_atl main 1608 1584 O____________O hurdat_atl AL061856 32.9000 -49.0000 TS 50 0 32.0000 -47.5000 HU 70 4 349
1856254N09333 1856 11 NA NA NOT_NAMED 1856-09-18 15:00:00 TS 32.8516 -48.6239 main 1573 1536 P____________P AL061856 33.1550 -49.1203 TS 50 0 32.0373 -47.2884 HU 70 7 334
1856254N09333 1856 11 NA NA NOT_NAMED 1856-09-18 18:00:00 TS 33.2200 -48.8600 50 hurdat_atl main 1534 1463 O____________O hurdat_atl AL061856 33.5000 -49.3000 TS 50 0 32.1000 -47.1000 HU 70 11 332
1856254N09333 1856 11 NA NA NOT_NAMED 1856-09-18 21:00:00 TS 33.7869 -49.2288 main 1463 1376 P_____________ AL061856 33.9924 -49.5199 TS 55 0 HU 15 329
1856254N09333 1856 11 NA NA NOT_NAMED 1856-09-19 00:00:00 TS 34.5000 -49.8000 60 hurdat_atl main 1376 1327 O_____________ hurdat_atl AL061856 34.5000 -49.8000 TS 60 0 HU 13 326
1856254N09333 1856 11 NA NA NOT_NAMED 1856-09-19 03:00:00 TS 34.8951 -50.1499 main 1327 1288 P_____________ AL061856 34.8951 -50.1499 TS 60 0 HU 9 321
1856254N09333 1856 11 NA NA NOT_NAMED 1856-09-19 06:00:00 TS 35.2000 -50.5000 60 hurdat_atl main 1288 1261 O_____________ hurdat_atl AL061856 35.2000 -50.5000 TS 60 0 HU 7 317
1856254N09333 1856 11 NA NA NOT_NAMED 1856-09-19 09:00:00 TS 35.4374 -50.7728 main 1261 1237 P_____________ AL061856 35.4374 -50.7728 TS 65 1 HU 6 315
1856254N09333 1856 11 NA NA NOT_NAMED 1856-09-19 12:00:00 TS 35.6000 -51.0000 70 hurdat_atl main 1237 1223 O_____________ hurdat_atl AL061856 35.6000 -51.0000 HU 70 1 HU 5 308
1856254N09333 1856 11 NA NA NOT_NAMED 1856-09-19 15:00:00 TS 35.7150 -51.2152 main 1223 1210 P_____________ AL061856 35.7150 -51.2152 HU 70 1 HU 4 302
1856254N09333 1856 11 NA NA NOT_NAMED 1856-09-19 18:00:00 TS 35.8000 -51.4000 70 hurdat_atl main 1210 1198 O_____________ hurdat_atl AL061856 35.8000 -51.4000 HU 70 1 HU 3 305
1856254N09333 1856 11 NA NA NOT_NAMED 1856-09-19 21:00:00 TS 35.9074 -51.5575 main 1197 1185 P_____________ AL061856 35.9074 -51.5575 HU 70 1 HU 3 309
1856254N09333 1856 11 NA NA NOT_NAMED 1856-09-20 00:00:00 TS 36.0000 -51.7000 70 hurdat_atl main 1185 1173 O_____________ hurdat_atl AL061856 36.0000 -51.7000 HU 70 1 HU 3 302
1856254N09333 1856 11 NA NA NOT_NAMED 1856-09-20 03:00:00 TS 36.0575 -51.8501 main 1173 1172 P_____________ AL061856 36.0575 -51.8501 HU 70 1 HU 3 292
1856254N09333 1856 11 NA NA NOT_NAMED 1856-09-20 06:00:00 TS 36.1000 -52.0000 70 hurdat_atl main 1172 1171 O_____________ hurdat_atl AL061856 36.1000 -52.0000 HU 70 1 HU 3 290
1856254N09333 1856 11 NA NA NOT_NAMED 1856-09-20 09:00:00 TS 36.1500 -52.1650 main 1159 1159 P_____________ AL061856 36.1500 -52.1650 HU 70 1 HU 3 293
1856254N09333 1856 11 NA NA NOT_NAMED 1856-09-20 12:00:00 TS 36.2000 -52.3000 70 hurdat_atl main 1159 1158 O_____________ hurdat_atl AL061856 36.2000 -52.3000 HU 70 1 HU 2 302
1856254N09333 1856 11 NA NA NOT_NAMED 1856-09-20 15:00:00 TS 36.2500 -52.3650 main 1158 1147 P_____________ AL061856 36.2500 -52.3650 HU 70 1 HU 1 323
1856254N09333 1856 11 NA NA NOT_NAMED 1856-09-20 18:00:00 TS 36.3000 -52.4000 70 hurdat_atl main 1147 1136 O_____________ hurdat_atl AL061856 36.3000 -52.4000 HU 70 1 HU 1 327
1856254N09333 1856 11 NA NA NOT_NAMED 1856-09-20 21:00:00 TS 36.3500 -52.4500 main 1136 1147 P_____________ AL061856 36.3500 -52.4500 HU 65 1 HU 1 113
1856254N09333 1856 11 NA NA NOT_NAMED 1856-09-21 00:00:00 TS 36.2778 -52.3333 60 hurdat_atl main 1148 1148 O____________O hurdat_atl AL061856 36.4000 -52.5000 TS 60 0 35.3000 -51.0000 HU 65 992 1 99
1856254N09333 1856 11 NA NA NOT_NAMED 1856-09-21 03:00:00 TS 36.3328 -52.3168 main 1148 1125 P____________P AL061856 36.4575 -52.5500 TS 60 0 35.8394 -51.2974 HU 65 2 0
1856254N09333 1856 11 NA NA NOT_NAMED 1856-09-21 06:00:00 TS 36.4727 -52.3273 60 hurdat_atl main 1125 1114 O____________O hurdat_atl AL061856 36.5000 -52.6000 TS 60 0 36.4000 -51.6000 HU 65 3 347
1856254N09333 1856 11 NA NA NOT_NAMED 1856-09-21 09:00:00 TS 36.6600 -52.4148 main 1103 1091 P____________P AL061856 36.5075 -52.6500 TS 60 0 36.9651 -51.9444 HU 65 4 336
1856254N09333 1856 11 NA NA NOT_NAMED 1856-09-21 12:00:00 TS 36.8333 -52.5333 60 hurdat_atl main 1091 1068 O____________O hurdat_atl AL061856 36.5000 -52.7000 TS 60 0 37.5000 -52.2000 HU 65 4 338
1856254N09333 1856 11 NA NA NOT_NAMED 1856-09-21 15:00:00 TS 36.9908 -52.5820 main 1068 1057 P____________P AL061856 36.5000 -52.7500 TS 60 0 37.9724 -52.2459 HU 65 3 351
1856254N09333 1856 11 NA NA NOT_NAMED 1856-09-21 18:00:00 TS 37.1333 -52.6000 60 hurdat_atl main 1057 1057 O____________O hurdat_atl AL061856 36.5000 -52.8000 TS 60 0 38.4000 -52.2000 HU 65 2 335
1856254N09333 1856 11 NA NA NOT_NAMED 1856-09-21 21:00:00 TS 37.1293 -52.6727 main 1057 1057 P____________P AL061856 36.5000 -52.8500 TS 60 0 38.8050 -52.1845 HU 65 2 234
1856254N09333 1856 11 NA NA NOT_NAMED 1856-09-22 00:00:00 TS 37.0400 -52.7600 60 hurdat_atl main 1068 1068 O____________O hurdat_atl AL061856 36.5000 -52.9000 TS 60 0 39.2000 -52.2000 HU 65 3 209
1856254N09333 1856 11 NA NA NOT_NAMED 1856-09-22 03:00:00 TS 36.8444 -52.8733 main 1090 1090 P_____________ AL061856 36.5000 -52.9575 TS 60 0 HU 6 200
1856254N09333 1856 11 NA NA NOT_NAMED 1856-09-22 06:00:00 TS 36.5000 -53.0000 60 hurdat_atl main 1123 1123 O_____________ hurdat_atl AL061856 36.5000 -53.0000 TS 60 0 4 197
1856254N09333 1856 11 NA NA NOT_NAMED 1856-09-22 09:00:00 TS 36.5000 -53.0075 main 1123 1123 P_____________ AL061856 36.5000 -53.0075 TS 60 0 0 0
1856254N09333 1856 11 NA NA NOT_NAMED 1856-09-22 12:00:00 TS 36.5000 -53.0000 60 hurdat_atl main 1123 1123 O_____________ hurdat_atl AL061856 36.5000 -53.0000 TS 60 0 0 0
1856254N09333 1856 11 NA NA NOT_NAMED 1856-09-22 15:00:00 TS 36.5000 -52.9975 main 1123 1123 P_____________ AL061856 36.5000 -52.9975 TS 60 0 0 0
1856254N09333 1856 11 NA NA NOT_NAMED 1856-09-22 18:00:00 TS 36.5000 -53.0000 60 hurdat_atl main 1123 O_____________ hurdat_atl AL061856 36.5000 -53.0000 TS 60 0 0 0

IBTrACS Databaseについて

本データベースは、米国NOAAが公開する1842年以降の世界の熱帯低気圧のベストトラックデータアーカイブInternational Best Track Archive for Climate Stewardship (IBTrACS)を、ウェブで閲覧しやすい形式に変換したものです。

最終更新日:2021-10-08